createdAt,value
2023-01-04T00:04:33.308Z,0.68
2023-01-04T00:09:34.807Z,1.23
2023-01-04T00:14:36.245Z,1.70
2023-01-04T00:19:37.851Z,1.65
2023-01-04T00:24:39.274Z,1.02
2023-01-04T00:29:40.818Z,1.13
2023-01-04T00:34:42.416Z,1.65
2023-01-04T00:39:43.968Z,1.38
2023-01-04T00:44:45.625Z,1.38
2023-01-04T00:49:47.059Z,0.93
2023-01-04T00:54:48.494Z,1.80
2023-01-04T00:59:50.107Z,0.80
2023-01-04T01:04:51.564Z,1.10
2023-01-04T01:09:53.022Z,0.57
2023-01-04T01:14:58.701Z,0.68
2023-01-04T01:20:01.945Z,0.65
2023-01-04T01:25:03.964Z,0.70
2023-01-04T01:30:06.407Z,0.82
2023-01-04T01:35:08.327Z,1.20
2023-01-04T01:40:10.700Z,2.00
2023-01-04T01:45:27.331Z,0.75
2023-01-04T01:50:47.353Z,1.02
2023-01-04T01:55:50.816Z,1.27
2023-01-04T02:00:52.336Z,1.20
2023-01-04T02:05:55.851Z,2.03
2023-01-04T02:10:58.308Z,1.95
2023-01-04T02:16:32.079Z,1.10
2023-01-04T02:21:49.272Z,1.63
2023-01-04T02:27:31.919Z,1.30
2023-01-04T02:32:50.901Z,1.75
2023-01-04T02:38:09.255Z,1.65
2023-01-04T02:43:16.611Z,1.77
2023-01-04T02:48:18.134Z,1.08
2023-01-04T02:53:24.578Z,1.50
2023-01-04T02:58:44.597Z,1.13
2023-01-04T03:04:01.952Z,1.10
2023-01-04T03:09:16.286Z,0.95
2023-01-04T03:14:32.112Z,1.17
2023-01-04T03:19:40.096Z,0.70
2023-01-04T03:24:41.509Z,1.05
2023-01-04T03:30:01.448Z,1.13
2023-01-04T03:35:03.469Z,1.58
2023-01-04T03:40:29.063Z,1.70
2023-01-04T03:45:42.247Z,0.90
2023-01-04T03:50:51.665Z,1.17
2023-01-04T03:55:55.637Z,0.98
2023-01-04T04:00:57.693Z,0.70
2023-01-04T04:05:59.290Z,1.15
2023-01-04T04:11:02.504Z,1.27
2023-01-04T04:16:04.153Z,0.70
2023-01-04T04:21:05.948Z,1.00
2023-01-04T04:26:07.386Z,0.50
2023-01-04T04:31:11.778Z,0.60
2023-01-04T04:36:13.292Z,0.60
2023-01-04T04:41:15.114Z,0.93
2023-01-04T04:46:18.932Z,0.57
2023-01-04T04:51:20.767Z,0.45
2023-01-04T04:56:22.266Z,1.20
2023-01-04T05:01:24.025Z,0.85
2023-01-04T05:06:25.645Z,0.40
2023-01-04T05:11:27.199Z,0.55
2023-01-04T05:16:28.742Z,0.40
2023-01-04T05:21:30.285Z,0.80
2023-01-04T05:26:31.945Z,0.35
2023-01-04T05:31:33.504Z,0.45
2023-01-04T05:36:35.057Z,0.40
2023-01-04T05:41:36.666Z,0.40
2023-01-04T05:46:38.330Z,0.43
2023-01-04T05:51:40.040Z,0.20
2023-01-04T05:56:41.467Z,0.20
2023-01-04T06:01:43.480Z,0.13
2023-01-04T06:06:45.232Z,0.68
2023-01-04T06:11:46.773Z,0.20
2023-01-04T06:16:48.403Z,0.00
2023-01-04T06:21:50.040Z,0.15
2023-01-04T06:26:51.717Z,0.30
2023-01-04T06:31:55.543Z,0.10
2023-01-04T06:36:56.978Z,0.10
2023-01-04T06:42:05.802Z,0.10
2023-01-04T06:47:08.320Z,1.15
2023-01-04T06:52:09.821Z,0.00
2023-01-04T06:57:11.956Z,0.10
2023-01-04T07:02:15.342Z,0.00
2023-01-04T07:07:16.996Z,0.00
2023-01-04T07:12:18.563Z,0.38
2023-01-04T07:17:24.897Z,0.00
2023-01-04T07:22:29.850Z,0.10
2023-01-04T07:27:31.661Z,0.10
2023-01-04T07:32:33.090Z,0.15
2023-01-04T07:37:34.765Z,0.00
2023-01-04T07:42:36.563Z,0.00
2023-01-04T07:47:38.128Z,0.13
2023-01-04T07:52:39.591Z,0.00
2023-01-04T07:57:41.126Z,0.00
2023-01-04T08:02:42.753Z,0.00
2023-01-04T08:07:44.424Z,0.00
2023-01-04T08:12:45.874Z,0.00
2023-01-04T08:17:47.916Z,0.00
2023-01-04T08:22:49.333Z,0.10
2023-01-04T08:27:50.938Z,0.10
2023-01-04T08:32:52.575Z,0.00
2023-01-04T08:37:54.153Z,0.00
2023-01-04T08:42:56.094Z,0.10
2023-01-04T08:47:57.738Z,0.03
2023-01-04T08:52:59.458Z,0.00
2023-01-04T08:58:01.066Z,0.00
2023-01-04T09:03:02.872Z,0.10
2023-01-04T09:08:05.041Z,0.00
2023-01-04T09:13:06.942Z,0.10
2023-01-04T09:23:31.471Z,0.03
2023-01-04T09:28:33.081Z,0.00
2023-01-04T09:34:03.882Z,0.00
2023-01-04T09:38:56.353Z,0.00
2023-01-04T09:44:11.053Z,0.00
2023-01-04T09:49:19.690Z,0.00
2023-01-04T10:00:44.981Z,0.00
2023-01-04T10:05:46.493Z,0.00
2023-01-04T10:11:06.709Z,0.00
2023-01-04T10:16:44.356Z,0.00
2023-01-04T10:22:04.809Z,0.00
2023-01-04T10:27:15.770Z,0.00
2023-01-04T10:32:22.943Z,0.00
2023-01-04T10:37:29.267Z,0.00
2023-01-04T10:42:32.614Z,0.00
2023-01-04T10:47:46.613Z,0.00
2023-01-04T10:52:53.795Z,0.00
2023-01-04T10:58:03.611Z,0.00
2023-01-04T11:03:43.766Z,0.00
2023-01-04T11:08:50.568Z,0.00
2023-01-04T11:13:52.253Z,0.00
2023-01-04T11:18:53.801Z,0.00
2023-01-04T11:24:22.017Z,0.00
2023-01-04T11:29:33.955Z,0.00
2023-01-04T11:34:49.596Z,0.00
2023-01-04T11:39:51.173Z,0.00
2023-01-04T11:44:59.123Z,0.00
2023-01-04T11:50:00.694Z,0.00
2023-01-04T11:55:25.996Z,0.10
2023-01-04T12:00:27.679Z,0.10
2023-01-04T12:05:32.317Z,0.20
2023-01-04T12:10:34.060Z,0.00
2023-01-04T12:16:10.150Z,0.00
2023-01-04T12:21:26.554Z,0.00
2023-01-04T12:26:28.184Z,0.00
2023-01-04T12:31:31.901Z,0.00
2023-01-04T12:36:39.565Z,0.00
2023-01-04T12:41:41.057Z,0.00
2023-01-04T12:46:43.069Z,0.00
2023-01-04T12:51:58.226Z,0.10
2023-01-04T12:57:17.958Z,0.00
2023-01-04T13:02:25.717Z,0.00
2023-01-04T13:07:39.851Z,0.00
2023-01-04T13:13:08.687Z,0.00
2023-01-04T13:18:36.424Z,0.10
2023-01-04T13:23:40.130Z,0.00
2023-01-04T13:28:41.604Z,0.00
2023-01-04T13:33:46.521Z,0.00
2023-01-04T13:38:48.219Z,0.00
2023-01-04T13:45:09.150Z,0.00
2023-01-04T13:50:01.334Z,0.00
2023-01-04T13:55:24.241Z,0.00
2023-01-04T14:00:35.818Z,0.00
2023-01-04T14:05:48.330Z,0.00
2023-01-04T14:10:50.038Z,0.00
2023-01-04T14:16:15.273Z,0.00
2023-01-04T14:21:18.154Z,0.00
2023-01-04T14:26:33.335Z,0.00
2023-01-04T14:31:36.664Z,0.00
2023-01-04T14:36:40.688Z,0.00
2023-01-04T14:41:53.086Z,0.00
2023-01-04T14:46:56.377Z,0.00
2023-01-04T14:52:03.445Z,0.00
2023-01-04T14:57:05.300Z,0.00
2023-01-04T15:02:09.038Z,0.00
2023-01-04T15:07:39.674Z,0.00
2023-01-04T15:12:41.238Z,0.00
2023-01-04T15:17:42.723Z,0.00
2023-01-04T15:22:44.990Z,0.00
2023-01-04T15:27:46.670Z,0.00
2023-01-04T15:32:48.370Z,0.00
2023-01-04T15:37:50.111Z,0.00
2023-01-04T15:42:51.807Z,0.00
2023-01-04T15:47:53.725Z,0.00
2023-01-04T15:52:55.194Z,0.00
2023-01-04T15:57:57.127Z,0.00
2023-01-04T16:02:58.614Z,0.00
2023-01-04T16:08:00.237Z,0.00
2023-01-04T16:13:01.717Z,0.00
2023-01-04T16:18:03.260Z,0.00
2023-01-04T16:23:04.718Z,0.00
2023-01-04T16:28:06.171Z,0.00
2023-01-04T16:33:07.646Z,0.00
2023-01-04T16:38:09.128Z,0.00
2023-01-04T16:43:10.637Z,0.00
2023-01-04T16:48:18.107Z,0.00
2023-01-04T16:53:20.078Z,0.00
2023-01-04T16:58:21.721Z,0.00
2023-01-04T17:03:23.268Z,0.00
2023-01-04T17:08:27.185Z,0.00
2023-01-04T17:13:28.822Z,0.00
2023-01-04T17:18:31.768Z,0.00
2023-01-04T17:23:36.667Z,0.00
2023-01-04T17:28:39.081Z,0.00
2023-01-04T17:33:40.598Z,0.00
2023-01-04T17:38:42.288Z,0.00
2023-01-04T17:43:46.207Z,0.00
2023-01-04T17:48:47.650Z,0.00
2023-01-04T17:53:54.751Z,0.00
2023-01-04T17:59:01.046Z,0.17
2023-01-04T18:04:03.633Z,0.10
2023-01-04T18:09:06.670Z,0.00
2023-01-04T18:14:10.231Z,0.00
2023-01-04T18:19:15.544Z,0.00
2023-01-04T18:24:35.347Z,0.00
2023-01-04T18:29:38.084Z,0.00
2023-01-04T18:34:39.695Z,0.20
2023-01-04T18:39:41.478Z,0.00
2023-01-04T18:44:48.452Z,0.00
2023-01-04T18:49:51.611Z,0.00
2023-01-04T18:54:53.074Z,0.00
2023-01-04T18:59:54.581Z,0.00
2023-01-04T19:04:56.040Z,0.00
2023-01-04T19:09:57.446Z,0.00
2023-01-04T19:14:58.952Z,0.00
2023-01-04T19:20:00.367Z,0.00
2023-01-04T19:25:01.938Z,0.00
2023-01-04T19:30:03.922Z,0.00
2023-01-04T19:35:05.787Z,0.00
2023-01-04T19:40:07.708Z,0.03
2023-01-04T19:45:09.582Z,0.00
2023-01-04T19:50:11.402Z,0.00
2023-01-04T19:55:13.005Z,0.00
2023-01-04T20:00:15.096Z,0.17
2023-01-04T20:05:17.168Z,0.10
2023-01-04T20:10:18.796Z,0.00
2023-01-04T20:15:21.310Z,0.10
2023-01-04T20:20:22.821Z,0.00
2023-01-04T20:25:24.396Z,0.00
2023-01-04T20:30:25.944Z,0.00
2023-01-04T20:35:27.655Z,0.00
2023-01-04T20:40:29.156Z,0.08
2023-01-04T20:45:30.709Z,0.00
2023-01-04T20:50:32.581Z,0.10
2023-01-04T20:55:40.871Z,0.10
2023-01-04T21:00:43.396Z,0.00
2023-01-04T21:05:45.337Z,0.10
2023-01-04T21:10:46.867Z,0.00
2023-01-04T21:15:48.475Z,0.00
2023-01-04T21:20:50.488Z,0.00
2023-01-04T21:25:52.487Z,0.00
2023-01-04T21:30:53.999Z,0.10
2023-01-04T21:35:55.532Z,0.00
2023-01-04T21:40:57.128Z,0.00
2023-01-04T21:46:04.349Z,0.00
2023-01-04T21:51:07.176Z,0.00
2023-01-04T21:56:11.840Z,0.00
2023-01-04T22:01:19.342Z,0.00
2023-01-04T22:06:21.033Z,0.00
2023-01-04T22:11:22.581Z,0.10
2023-01-04T22:16:24.384Z,0.00
2023-01-04T22:21:26.232Z,0.00
2023-01-04T22:26:27.860Z,0.10
2023-01-04T22:31:29.872Z,0.22
2023-01-04T22:36:31.540Z,0.00
2023-01-04T22:41:33.175Z,0.00
2023-01-04T22:46:35.787Z,0.00
2023-01-04T22:51:37.408Z,0.03
2023-01-04T22:56:38.962Z,0.10
2023-01-04T23:01:40.616Z,0.00
2023-01-04T23:06:42.575Z,0.05
2023-01-04T23:11:44.773Z,0.00
2023-01-04T23:16:46.408Z,0.00
2023-01-04T23:21:47.962Z,0.00
2023-01-04T23:26:49.529Z,0.00
2023-01-04T23:31:51.158Z,0.00
2023-01-04T23:36:52.666Z,0.00
2023-01-04T23:41:54.149Z,0.00
2023-01-04T23:47:00.697Z,0.00
2023-01-04T23:52:04.099Z,0.00
2023-01-04T23:57:05.629Z,0.00
